Map

Track Data

SID SEASON NUMBER BASIN SUBBASIN NAME ISO_TIME NATURE LAT LON WMO_WIND WMO_PRES WMO_AGENCY TRACK_TYPE DIST2LAND LANDFALL IFLAG USA_AGENCY USA_ATCF_ID USA_LAT USA_LON USA_RECORD USA_STATUS USA_WIND USA_PRES USA_SSHS USA_R34_NE USA_R34_SE USA_R34_SW USA_R34_NW USA_R50_NE USA_R50_SE USA_R50_SW USA_R50_NW USA_R64_NE USA_R64_SE USA_R64_SW USA_R64_NW USA_POCI USA_ROCI USA_RMW USA_EYE TOKYO_LAT TOKYO_LON TOKYO_GRADE TOKYO_WIND TOKYO_PRES TOKYO_R50_DIR TOKYO_R50_LONG TOKYO_R50_SHORT TOKYO_R30_DIR TOKYO_R30_LONG TOKYO_R30_SHORT TOKYO_LAND CMA_LAT CMA_LON CMA_CAT CMA_WIND CMA_PRES HKO_LAT HKO_LON HKO_CAT HKO_WIND HKO_PRES NEWDELHI_LAT NEWDELHI_LON NEWDELHI_GRADE NEWDELHI_WIND NEWDELHI_PRES NEWDELHI_CI NEWDELHI_DP NEWDELHI_POCI REUNION_LAT REUNION_LON REUNION_TYPE REUNION_WIND REUNION_PRES REUNION_TNUM REUNION_CI REUNION_RMW REUNION_R34_NE REUNION_R34_SE REUNION_R34_SW REUNION_R34_NW REUNION_R50_NE REUNION_R50_SE REUNION_R50_SW REUNION_R50_NW REUNION_R64_NE REUNION_R64_SE REUNION_R64_SW REUNION_R64_NW BOM_LAT BOM_LON BOM_TYPE BOM_WIND BOM_PRES BOM_TNUM BOM_CI BOM_RMW BOM_R34_NE BOM_R34_SE BOM_R34_SW BOM_R34_NW BOM_R50_NE BOM_R50_SE BOM_R50_SW BOM_R50_NW BOM_R64_NE BOM_R64_SE BOM_R64_SW BOM_R64_NW BOM_ROCI BOM_POCI BOM_EYE BOM_POS_METHOD BOM_PRES_METHOD NADI_LAT NADI_LON NADI_CAT NADI_WIND NADI_PRES WELLINGTON_LAT WELLINGTON_LON WELLINGTON_WIND WELLINGTON_PRES DS824_LAT DS824_LON DS824_STAGE DS824_WIND DS824_PRES TD9636_LAT TD9636_LON TD9636_STAGE TD9636_WIND TD9636_PRES TD9635_LAT TD9635_LON TD9635_WIND TD9635_PRES TD9635_ROCI NEUMANN_LAT NEUMANN_LON NEUMANN_CLASS NEUMANN_WIND NEUMANN_PRES MLC_LAT MLC_LON MLC_CLASS MLC_WIND MLC_PRES USA_GUST BOM_GUST BOM_GUST_PER REUNION_GUST REUNION_GUST_PER USA_SEAHGT USA_SEARAD_NE USA_SEARAD_SE USA_SEARAD_SW USA_SEARAD_NW STORM_SPEED STORM_DIR
1994348N04175 1994 116 WP MM BOBBIE 1994-12-14 00:00:00 NR 4.00000 175.000 main 2099 2091 O_____________ jtwc_wp WP391994 4.00000 175.000 15 -1 3 288
1994348N04175 1994 116 WP MM BOBBIE 1994-12-14 03:00:00 NR 4.05001 174.850 main 2098 2082 P_____________ WP391994 4.05001 174.850 15 -1 3 289
1994348N04175 1994 116 WP MM BOBBIE 1994-12-14 06:00:00 NR 4.10000 174.700 main 2082 2074 O_____________ jtwc_wp WP391994 4.10000 174.700 15 -1 3 289
1994348N04175 1994 116 WP MM BOBBIE 1994-12-14 09:00:00 NR 4.15000 174.550 main 2074 2066 P_____________ WP391994 4.15000 174.550 15 -1 3 289
1994348N04175 1994 116 WP MM BOBBIE 1994-12-14 12:00:00 NR 4.20000 174.400 main 2066 2058 O_____________ jtwc_wp WP391994 4.20000 174.400 15 -1 3 289
1994348N04175 1994 116 WP MM BOBBIE 1994-12-14 15:00:00 NR 4.25000 174.250 main 2066 2050 P_____________ WP391994 4.25000 174.250 15 -1 3 289
1994348N04175 1994 116 WP MM BOBBIE 1994-12-14 18:00:00 NR 4.30000 174.100 main 2050 2042 O_____________ jtwc_wp WP391994 4.30000 174.100 15 -1 3 289
1994348N04175 1994 116 WP MM BOBBIE 1994-12-14 21:00:00 NR 4.35000 173.950 main 2050 2034 P_____________ WP391994 4.35000 173.950 17 -1 3 289
1994348N04175 1994 116 WP MM BOBBIE 1994-12-15 00:00:00 NR 4.40000 173.800 main 2034 2026 O_____________ jtwc_wp WP391994 4.40000 173.800 20 -1 3 289
1994348N04175 1994 116 WP MM BOBBIE 1994-12-15 03:00:00 NR 4.44999 173.658 main 2026 2019 P_____________ WP391994 4.44999 173.658 20 -1 3 289
1994348N04175 1994 116 WP MM BOBBIE 1994-12-15 06:00:00 NR 4.50000 173.500 main 2019 2003 O_____________ jtwc_wp WP391994 4.50000 173.500 20 -1 4 286
1994348N04175 1994 116 WP MM BOBBIE 1994-12-15 09:00:00 NR 4.55000 173.308 main 2011 1996 P_____________ WP391994 4.55000 173.308 20 -1 4 284
1994348N04175 1994 116 WP MM BOBBIE 1994-12-15 12:00:00 NR 4.60000 173.100 main 1996 1981 O_____________ jtwc_wp WP391994 4.60000 173.100 20 -1 4 284
1994348N04175 1994 116 WP MM BOBBIE 1994-12-15 15:00:00 NR 4.64999 172.900 main 1981 1974 P_____________ WP391994 4.64999 172.900 20 -1 4 284
1994348N04175 1994 116 WP MM BOBBIE 1994-12-15 18:00:00 NR 4.70000 172.700 main 1974 1960 O_____________ jtwc_wp WP391994 4.70000 172.700 20 -1 4 284
1994348N04175 1994 116 WP MM BOBBIE 1994-12-15 21:00:00 NR 4.74999 172.500 main 1960 1953 P_____________ WP391994 4.74999 172.500 20 -1 4 284
1994348N04175 1994 116 WP MM BOBBIE 1994-12-16 00:00:00 NR 4.80000 172.300 main 1953 1939 O_____________ jtwc_wp WP391994 4.80000 172.300 20 -1 4 284
1994348N04175 1994 116 WP MM BOBBIE 1994-12-16 03:00:00 NR 4.84999 172.100 main 1939 1933 P_____________ WP391994 4.84999 172.100 22 -1 4 284
1994348N04175 1994 116 WP MM BOBBIE 1994-12-16 06:00:00 NR 4.90000 171.900 main 1933 1919 O_____________ jtwc_wp WP391994 4.90000 171.900 25 -1 4 284
1994348N04175 1994 116 WP MM BOBBIE 1994-12-16 09:00:00 NR 4.94999 171.707 main 1919 1914 P_____________ WP391994 4.94999 171.707 25 -1 4 284
1994348N04175 1994 116 WP MM BOBBIE 1994-12-16 12:00:00 NR 5.00000 171.500 main 1914 1900 O_____________ jtwc_wp WP391994 5.00000 171.500 25 -1 5 283
1994348N04175 1994 116 WP MM BOBBIE 1994-12-16 15:00:00 NR 5.04999 171.265 main 1900 1889 P_____________ WP391994 5.04999 171.265 25 -1 5 281
1994348N04175 1994 116 WP MM BOBBIE 1994-12-16 18:00:00 NR 5.10000 171.000 main 1889 1869 O_____________ jtwc_wp WP391994 5.10000 171.000 25 -1 6 280
1994348N04175 1994 116 WP MM BOBBIE 1994-12-16 21:00:00 NR 5.14998 170.715 main 1869 1859 P_____________ WP391994 5.14998 170.715 25 -1 6 280
1994348N04175 1994 116 WP MM BOBBIE 1994-12-17 00:00:00 NR 5.20000 170.400 main 1859 1840 O_____________ jtwc_wp WP391994 5.20000 170.400 25 -1 7 279
1994348N04175 1994 116 WP MM BOBBIE 1994-12-17 03:00:00 NR 5.24998 170.065 main 1840 1825 P_____________ WP391994 5.24998 170.065 25 -1 7 278
1994348N04175 1994 116 WP MM BOBBIE 1994-12-17 06:00:00 NR 5.30000 169.700 main 1825 1801 O_____________ jtwc_wp WP391994 5.30000 169.700 25 -1 8 278
1994348N04175 1994 116 WP MM BOBBIE 1994-12-17 09:00:00 NR 5.34997 169.315 main 1801 1788 P_____________ WP391994 5.34997 169.315 27 -1 8 277
1994348N04175 1994 116 WP MM BOBBIE 1994-12-17 12:00:00 NR 5.40000 168.900 main 1788 1766 O_____________ jtwc_wp WP391994 5.40000 168.900 30 -1 9 276
1994348N04175 1994 116 WP MM BOBBIE 1994-12-17 15:00:00 NR 5.44247 168.465 main 1766 1750 P_____________ WP391994 5.44247 168.465 30 -1 9 276
1994348N04175 1994 116 WP MM BOBBIE 1994-12-17 18:00:00 NR 5.50000 168.000 main 1750 1736 O_____________ jtwc_wp WP391994 5.50000 168.000 30 -1 10 279
1994348N04175 1994 116 WP MM BOBBIE 1994-12-17 21:00:00 NR 5.59996 167.515 main 1736 1723 P_____________ WP391994 5.59996 167.515 30 -1 10 281
1994348N04175 1994 116 WP MM BOBBIE 1994-12-18 00:00:00 NR 5.70000 167.000 main 1723 1701 O_____________ jtwc_wp WP391994 5.70000 167.000 30 -1 11 279
1994348N04175 1994 116 WP MM BOBBIE 1994-12-18 03:00:00 NR 5.75747 166.457 main 1712 1708 P_____________ WP391994 5.75747 166.457 32 -1 10 291
1994348N04175 1994 116 WP MM BOBBIE 1994-12-18 06:00:00 TS 6.05714 166.086 1000 tokyo main 1728 1695 OOOO__________ jtwc_wp WP391994 5.80000 165.900 35 0 6.50000 166.000 2 1000 0 0 0 6.50000 166.000 1 29 1000 6.20000 167.000 TD 25 1000 10 285
1994348N04175 1994 116 WP MM BOBBIE 1994-12-18 09:00:00 TS 6.01205 165.499 main 1695 1662 PPPP__________ WP391994 5.85745 165.350 35 0 6.26263 165.262 2 1000 0 0 6.26263 165.262 1 29 1000 5.82012 166.272 TD 27 999 13 261
1994348N04175 1994 116 WP MM BOBBIE 1994-12-18 12:00:00 TS 5.85385 164.823 1000 tokyo main 1657 1606 OOOO__________ jtwc_wp WP391994 5.90000 164.800 35 0 6.00000 164.500 2 1000 0 0 0 6.00000 164.500 1 29 1000 5.50000 165.500 TD 30 998 15 256
1994348N04175 1994 116 WP MM BOBBIE 1994-12-18 15:00:00 TS 5.65187 164.083 main 1606 1548 PPPP__________ WP391994 5.89245 164.250 35 0 5.71253 163.712 2 1000 0 0 5.71253 163.712 1 29 1000 5.28998 164.658 TD 32 997 15 257
1994348N04175 1994 116 WP MM BOBBIE 1994-12-18 18:00:00 TS 5.52500 163.375 1000 tokyo main 1548 1509 OOOO__________ jtwc_wp WP391994 5.90000 163.700 35 0 5.50000 163.000 2 1000 0 0 0 5.50000 163.000 1 29 1000 5.20000 163.800 TS 35 996 13 264
1994348N04175 1994 116 WP MM BOBBIE 1994-12-18 21:00:00 TS 5.50805 162.754 main 1509 1482 PPPP__________ WP391994 5.97745 163.150 37 0 5.42485 162.463 2 1000 0 0 5.42485 162.463 1 29 1000 5.20504 162.940 TS 35 996 12 274
1994348N04175 1994 116 WP MM BOBBIE 1994-12-19 00:00:00 TS 5.60000 162.200 1000 tokyo main 1482 1461 OOOO__________ jtwc_wp WP391994 6.10000 162.600 40 0 5.50000 162.000 2 1000 0 0 0 5.50000 162.000 1 29 1000 5.30000 162.200 TS 35 996 11 283
1994348N04175 1994 116 WP MM BOBBIE 1994-12-19 03:00:00 TS 5.76622 161.663 main 1469 1448 PPPP__________ WP391994 6.22747 162.042 40 0 5.70504 161.463 2 999 0 0 5.71254 161.463 1 29 999 5.41985 161.683 TS 35 996 11 292
1994348N04175 1994 116 WP MM BOBBIE 1994-12-19 06:00:00 TS 6.00000 161.200 998 tokyo main 1450 1442 OOOO__________ jtwc_wp WP391994 6.40000 161.500 40 0 6.00000 161.000 2 998 0 0 0 6.00000 161.000 1 29 998 5.60000 161.300 TS 35 996 9 299
1994348N04175 1994 116 WP MM BOBBIE 1994-12-19 09:00:00 TS 6.22681 160.840 main 1439 1439 PPPP__________ WP391994 6.61997 160.977 40 0 6.27739 160.727 2 997 0 0 6.21990 160.727 1 33 996 5.78997 160.927 TS 35 996 9 308
1994348N04175 1994 116 WP MM BOBBIE 1994-12-19 12:00:00 TS 6.52500 160.525 35 996 tokyo main 1445 1445 OOOO__________ jtwc_wp WP391994 6.90000 160.500 40 0 6.60000 160.500 3 35 996 0 9 240 240 0 6.50000 160.500 2 38 995 6.10000 160.600 TS 35 996 10 315
1994348N04175 1994 116 WP MM BOBBIE 1994-12-19 15:00:00 TS 6.91379 160.143 main 1454 1454 PPPP__________ WP391994 7.20501 160.048 40 0 6.95508 160.128 3 35 996 0 9 240 240 6.89758 160.128 2 38 995 6.59752 160.270 TS 35 996 11 322
1994348N04175 1994 116 WP MM BOBBIE 1994-12-19 18:00:00 TS 7.40000 159.825 35 996 tokyo main 1479 1479 OOOO__________ jtwc_wp WP391994 7.60000 159.700 40 0 7.40000 159.800 3 35 996 0 9 240 240 0 7.40000 159.800 2 38 995 7.20000 160.000 TS 35 996 12 335
1994348N04175 1994 116 WP MM BOBBIE 1994-12-19 21:00:00 TS 7.96871 159.644 main 1521 1521 PPPP__________ WP391994 8.11995 159.490 42 0 7.97746 159.640 3 35 995 0 9 225 225 7.98496 159.633 2 38 995 7.79248 159.812 TS 35 996 12 348
1994348N04175 1994 116 WP MM BOBBIE 1994-12-20 00:00:00 TS 8.57500 159.575 35 994 tokyo main 1577 1577 OOOO__________ jtwc_wp WP391994 8.70000 159.400 45 0 8.60000 159.600 3 35 994 0 9 210 210 0 8.60000 159.600 2 38 995 8.40000 159.700 TS 35 996 12 0
1994348N04175 1994 116 WP MM BOBBIE 1994-12-20 03:00:00 TS 9.14310 159.618 main 1625 1625 PPPP__________ WP391994 9.24248 159.400 45 0 9.15748 159.672 3 35 994 0 9 195 195 9.15748 159.730 2 38 995 9.01494 159.672 TS 35 996 11 3
1994348N04175 1994 116 WP MM BOBBIE 1994-12-20 06:00:00 TS 9.70000 159.625 35 994 tokyo main 1682 1682 OOOO__________ jtwc_wp WP391994 9.80000 159.400 45 0 9.70000 159.700 3 35 994 0 9 180 180 0 9.70000 159.800 2 38 995 9.60000 159.600 TS 35 996 11 351
1994348N04175 1994 116 WP MM BOBBIE 1994-12-20 09:00:00 TS 10.2650 159.444 main 1728 1728 PPPP__________ WP391994 10.4149 159.310 45 0 10.2649 159.532 3 35 994 0 9 180 180 10.2650 159.583 2 38 995 10.1150 159.352 TS 35 996 12 336
1994348N04175 1994 116 WP MM BOBBIE 1994-12-20 12:00:00 TS 10.8000 159.125 35 994 tokyo main 1760 1760 OOOO__________ jtwc_wp WP391994 11.0000 159.100 45 0 10.8000 159.200 3 35 994 0 9 180 180 0 10.8000 159.200 2 38 995 10.6000 159.000 TS 35 996 13 326
1994348N04175 1994 116 WP MM BOBBIE 1994-12-20 15:00:00 TS 11.2943 158.732 main 1789 1789 PPPP__________ WP391994 11.4949 158.767 45 0 11.2801 158.738 3 35 994 0 9 180 180 11.2799 158.787 2 38 995 11.1224 158.637 TS 35 996 13 317
1994348N04175 1994 116 WP MM BOBBIE 1994-12-20 18:00:00 TS 11.7250 158.250 35 994 tokyo main 1809 1804 OOOO__________ jtwc_wp WP391994 11.9000 158.300 45 0 11.7000 158.200 3 35 994 0 9 180 180 0 11.7000 158.300 2 38 995 11.6000 158.200 TS 35 996 13 309
1994348N04175 1994 116 WP MM BOBBIE 1994-12-20 21:00:00 TS 12.0962 157.728 main 1820 1820 PPPP__________ WP391994 12.2225 157.730 45 0 12.0873 157.722 3 37 993 0 9 180 180 12.0874 157.780 2 38 993 11.9875 157.680 TS 35 996 13 302
1994348N04175 1994 116 WP MM BOBBIE 1994-12-21 00:00:00 TS 12.4000 157.150 40 992 tokyo main 1829 1823 OOOO__________ jtwc_wp WP391994 12.5000 157.100 45 0 12.4000 157.200 3 40 992 0 9 180 180 0 12.4000 157.200 2 38 992 12.3000 157.100 TS 35 996 13 296
1994348N04175 1994 116 WP MM BOBBIE 1994-12-21 03:00:00 TS 12.6560 156.557 main 1836 1825 PPPP__________ WP391994 12.8073 156.507 45 0 12.6222 156.602 3 40 992 0 9 180 180 12.6296 156.610 2 38 992 12.5649 156.507 TS 35 996 13 291
1994348N04175 1994 116 WP MM BOBBIE 1994-12-21 06:00:00 TS 12.8750 155.900 40 992 tokyo main 1833 1824 OOOO__________ jtwc_wp WP391994 13.1000 155.900 45 0 12.8000 155.900 3 40 992 0 9 180 180 0 12.8000 155.900 2 38 992 12.8000 155.900 TS 35 996 14 287
1994348N04175 1994 116 WP MM BOBBIE 1994-12-21 09:00:00 TS 13.0875 155.150 main 1832 1824 PPPP__________ WP391994 13.3574 155.257 47 0 13.0000 155.080 3 40 992 0 9 195 195 12.9355 154.957 2 38 991 13.0573 155.307 TS 37 994 15 286
1994348N04175 1994 116 WP MM BOBBIE 1994-12-21 12:00:00 TS 13.3000 154.375 40 992 tokyo main 1833 1831 OOOO__________ jtwc_wp WP391994 13.6000 154.600 50 0 13.2000 154.200 3 40 992 0 9 210 210 0 13.1000 154.000 2 38 990 13.3000 154.700 TS 40 992 15 287
1994348N04175 1994 116 WP MM BOBBIE 1994-12-21 15:00:00 TS 13.5391 153.655 main 1841 1841 PPPP__________ WP391994 13.8498 153.950 50 0 13.3999 153.335 3 42 991 0 9 225 225 13.3993 153.278 2 38 990 13.5074 154.057 TS 40 992 15 289
1994348N04175 1994 116 WP MM BOBBIE 1994-12-21 18:00:00 TS 13.7750 152.950 45 990 tokyo main 1863 1859 OOOO__________ jtwc_wp WP391994 14.1000 153.300 50 0 13.6000 152.500 3 45 990 0 9 240 240 0 13.7000 152.600 2 38 990 13.7000 153.400 TS 40 992 15 287
1994348N04175 1994 116 WP MM BOBBIE 1994-12-21 21:00:00 TS 13.9730 152.232 main 1876 1873 PPPP__________ WP391994 14.3573 152.657 50 0 13.7923 151.712 3 45 990 0 9 255 240 13.8500 151.807 2 43 990 13.8923 152.750 TS 40 992 14 286
1994348N04175 1994 116 WP MM BOBBIE 1994-12-22 00:00:00 TS 14.1750 151.525 45 990 tokyo main 1881 1876 OOOO__________ jtwc_wp WP391994 14.6000 152.000 50 0 14.0000 151.000 3 45 990 0 8 270 240 0 14.0000 151.000 3 48 990 14.1000 152.100 TS 40 992 14 288
1994348N04175 1994 116 WP MM BOBBIE 1994-12-22 03:00:00 TS 14.4155 150.833 main 1886 1886 PPPP__________ WP391994 14.8074 151.300 50 0 14.2271 150.385 3 45 990 0 8 270 240 14.2775 150.205 3 48 987 14.3499 151.443 TS 40 992 14 291
1994348N04175 1994 116 WP MM BOBBIE 1994-12-22 06:00:00 TS 14.6750 150.175 45 990 tokyo main 1907 1903 OOOO__________ jtwc_wp WP391994 15.0000 150.600 50 0 14.5000 149.800 3 45 990 0 8 270 240 0 14.6000 149.500 3 48 985 14.6000 150.800 TS 40 992 13 293
1994348N04175 1994 116 WP MM BOBBIE 1994-12-22 09:00:00 TS 14.9448 149.552 main 1919 1919 PPPP__________ WP391994 15.2072 149.942 50 0 14.8577 149.120 3 45 990 0 8 270 240 14.9147 148.947 3 48 985 14.7997 150.200 TS 40 992 13 294
1994348N04175 1994 116 WP MM BOBBIE 1994-12-22 12:00:00 TS 15.2000 148.975 45 990 tokyo main 1946 1945 OOOO__________ jtwc_wp WP391994 15.4000 149.300 50 0 15.2000 148.500 3 45 990 0 7 270 240 0 15.2000 148.500 3 48 985 15.0000 149.600 TS 40 992 12 293
1994348N04175 1994 116 WP MM BOBBIE 1994-12-22 15:00:00 TS 15.4111 148.435 main 1963 1962 PPPP__________ WP391994 15.5573 148.650 47 0 15.4222 148.062 3 45 990 0 7 270 240 15.4148 148.085 3 48 985 15.2500 148.943 TS 40 992 11 292
1994348N04175 1994 116 WP MM BOBBIE 1994-12-22 18:00:00 TS 15.6000 147.925 45 990 tokyo main 1983 1983 OOOO__________ jtwc_wp WP391994 15.7000 148.000 45 0 15.6000 147.700 3 45 990 0 7 270 240 0 15.6000 147.700 3 48 985 15.5000 148.300 TS 40 992 10 292
1994348N04175 1994 116 WP MM BOBBIE 1994-12-22 21:00:00 TS 15.7947 147.438 main 2005 2005 PPPP__________ WP391994 15.8499 147.342 45 0 15.8072 147.330 3 45 990 0 7 285 240 15.8072 147.337 3 48 985 15.7147 147.742 TS 40 992 10 291
1994348N04175 1994 116 WP MM BOBBIE 1994-12-23 00:00:00 TS 15.9750 146.925 45 990 tokyo main 2027 2027 OOOO__________ jtwc_wp WP391994 16.0000 146.700 45 0 16.0000 146.900 3 45 990 0 7 300 240 0 16.0000 146.900 3 48 985 15.9000 147.200 TS 40 992 11 288
1994348N04175 1994 116 WP MM BOBBIE 1994-12-23 03:00:00 TS 16.1324 146.331 main 2039 2039 PPPP__________ WP391994 16.1498 146.092 45 0 16.1649 146.345 3 47 987 0 7 300 240 16.1577 146.280 3 48 985 16.0574 146.607 TS 40 992 12 284
1994348N04175 1994 116 WP MM BOBBIE 1994-12-23 06:00:00 TS 16.2750 145.700 50 985 tokyo main 2063 2063 OOOO__________ jtwc_wp WP391994 16.3000 145.500 45 0 16.3000 145.700 4 50 985 0 7 300 240 0 16.3000 145.600 3 48 985 16.2000 146.000 TS 40 992 12 283
1994348N04175 1994 116 WP MM BOBBIE 1994-12-23 09:00:00 TS 16.4180 145.077 main 2078 2078 PPPP__________ WP391994 16.4424 144.892 45 0 16.4075 145.007 4 50 985 0 7 300 240 16.4646 145.008 3 48 985 16.3573 145.400 TS 40 992 12 283
1994348N04175 1994 116 WP MM BOBBIE 1994-12-23 12:00:00 TS 16.5500 144.450 50 985 tokyo main 2069 2034 OOOO__________ jtwc_wp WP391994 16.6000 144.300 45 0 16.5000 144.300 4 50 985 0 7 300 240 0 16.6000 144.400 3 48 985 16.5000 144.800 TS 40 992 12 281
1994348N04175 1994 116 WP MM BOBBIE 1994-12-23 15:00:00 TS 16.6586 143.815 main 2030 1973 PPPP__________ WP391994 16.7923 143.742 45 0 16.5924 143.627 4 50 985 0 7 300 240 16.6501 143.692 3 48 985 16.5998 144.200 TS 42 991 12 281
1994348N04175 1994 116 WP MM BOBBIE 1994-12-23 18:00:00 TS 16.7750 143.200 50 985 tokyo main 1973 1924 OOOO__________ jtwc_wp WP391994 17.0000 143.200 45 0 16.7000 143.000 4 50 985 0 7 300 240 0 16.7000 143.000 3 48 985 16.7000 143.600 TS 45 990 12 283
1994348N04175 1994 116 WP MM BOBBIE 1994-12-23 21:00:00 TS 16.9204 142.632 main 1914 1867 PPPP__________ WP391994 17.1999 142.650 42 0 16.8272 142.442 4 50 985 0 7 300 240 16.8196 142.435 3 48 985 16.8348 143.000 TS 45 990 11 287
1994348N04175 1994 116 WP MM BOBBIE 1994-12-24 00:00:00 TS 17.1000 142.075 50 985 tokyo main 1867 1812 OOOO__________ jtwc_wp WP391994 17.4000 142.100 40 0 17.0000 141.900 4 50 985 0 7 300 240 0 17.0000 141.900 3 48 985 17.0000 142.400 TS 45 990 12 289
1994348N04175 1994 116 WP MM BOBBIE 1994-12-24 03:00:00 TS 17.2987 141.485 main 1812 1758 PPPP__________ WP391994 17.5998 141.557 40 0 17.2050 141.292 4 47 987 0 7 300 240 17.2050 141.292 3 48 985 17.1848 141.800 TS 45 990 12 292
1994348N04175 1994 116 WP MM BOBBIE 1994-12-24 06:00:00 TS 17.5500 140.900 45 990 tokyo main 1761 1718 OOOO__________ jtwc_wp WP391994 17.8000 141.000 40 0 17.5000 140.700 3 45 990 0 7 300 240 0 17.5000 140.700 3 48 985 17.4000 141.200 TS 45 990 12 298
1994348N04175 1994 116 WP MM BOBBIE 1994-12-24 09:00:00 TS 17.8816 140.348 main 1712 1674 PPPP__________ WP391994 17.9999 140.407 40 0 17.9422 140.193 3 42 991 0 7 270 210 17.9422 140.193 3 48 987 17.6423 140.600 TS 42 992 12 303
1994348N04175 1994 116 WP MM BOBBIE 1994-12-24 12:00:00 TS 18.2250 139.800 40 992 tokyo main 1674 1638 OOOO__________ jtwc_wp WP391994 18.2000 139.800 40 0 18.4000 139.700 3 40 992 0 7 240 180 0 18.4000 139.700 3 48 990 17.9000 140.000 TS 40 994 12 300
1994348N04175 1994 116 WP MM BOBBIE 1994-12-24 15:00:00 TS 18.5042 139.232 main 1629 1590 PPPP__________ WP391994 18.3998 139.200 37 0 18.7373 139.165 3 37 994 0 7 240 165 18.7373 139.165 3 43 991 18.1423 139.400 TS 37 996 12 296
1994348N04175 1994 116 WP MM BOBBIE 1994-12-24 18:00:00 TS 18.7500 138.650 35 996 tokyo main 1582 1532 OOOO__________ jtwc_wp WP391994 18.6000 138.600 35 0 19.0000 138.600 3 35 996 0 7 240 150 0 19.0000 138.600 2 38 992 18.4000 138.800 TS 35 998 12 293
1994348N04175 1994 116 WP MM BOBBIE 1994-12-24 21:00:00 TS 18.9937 138.037 main 1527 1484 PPPP__________ WP391994 18.7999 137.992 35 0 19.2376 137.978 3 998 0 7 19.2376 137.978 2 38 993 18.6998 138.200 TS 32 999 12 292
1994348N04175 1994 116 WP MM BOBBIE 1994-12-25 00:00:00 TS 19.2133 137.440 1000 tokyo main 1479 1441 OOOO__________ jtwc_wp WP391994 19.0000 137.400 35 0 19.4000 137.400 2 1000 0 0 0 19.4000 137.400 2 38 995 19.0000 137.600 TD 30 1000 11 290
1994348N04175 1994 116 WP MM BOBBIE 1994-12-25 03:00:00 TS 19.3644 136.940 main 1437 1410 PPPP__________ WP391994 19.1998 136.835 32 -1 19.4721 136.977 2 1000 0 0 19.4721 136.977 2 33 997 19.2629 137.000 TD 30 1000 9 286
1994348N04175 1994 116 WP MM BOBBIE 1994-12-25 06:00:00 TS 19.4692 136.492 1000 tokyo main 1410 1379 OOOO__________ jtwc_wp WP391994 19.4000 136.300 30 -1 19.5000 136.600 2 1000 0 0 0 19.5000 136.600 1 29 1000 19.5000 136.400 TD 30 1000 9 283
1994348N04175 1994 116 WP MM BOBBIE 1994-12-25 09:00:00 TS 19.5667 136.018 main 1379 1354 PPP___________ WP391994 19.6000 135.770 30 -1 19.5500 136.143 2 1000 0 0 19.5500 136.143 1 29 1000 TD 9 283
1994348N04175 1994 116 WP MM BOBBIE 1994-12-25 12:00:00 TS 19.6667 135.567 1000 tokyo main 1354 1319 OOO___________ jtwc_wp WP391994 19.8000 135.300 30 -1 19.6000 135.700 2 1000 0 0 0 19.6000 135.700 1 29 1000 8 283
1994348N04175 1994 116 WP MM BOBBIE 1994-12-25 15:00:00 TS 19.7541 135.177 main 1325 1297 PPP___________ WP391994 19.9924 134.890 30 -1 19.6349 135.320 2 1001 0 0 19.6349 135.320 1 29 1001 7 287
1994348N04175 1994 116 WP MM BOBBIE 1994-12-25 18:00:00 TS 19.8667 134.867 1002 tokyo main 1302 1275 OOO___________ jtwc_wp WP391994 20.2000 134.600 30 -1 19.7000 135.000 2 1002 0 0 0 19.7000 135.000 1 29 1002 6 292
1994348N04175 1994 116 WP MM BOBBIE 1994-12-25 21:00:00 TS 19.9725 134.602 main 1281 1264 PPP___________ WP391994 20.4274 134.440 27 -1 19.7450 134.683 2 1003 0 0 19.7450 134.683 1 26 1003 5 314
1994348N04175 1994 116 WP MM BOBBIE 1994-12-26 00:00:00 TS 20.2333 134.467 1004 tokyo main 1264 1208 OOO___________ jtwc_wp WP391994 20.7000 134.400 25 -1 20.0000 134.500 2 1004 0 0 0 20.0000 134.500 1 23 1004 8 348
1994348N04175 1994 116 WP MM BOBBIE 1994-12-26 03:00:00 TS 20.7770 134.424 main 1197 1140 PPP___________ WP391994 21.0125 134.413 25 -1 20.6592 134.429 2 1004 0 0 20.6592 134.429 1 23 1004 13 8
1994348N04175 1994 116 WP MM BOBBIE 1994-12-26 06:00:00 ET 21.4727 134.645 1004 tokyo main 1129 1089 OOO___________ jtwc_wp WP391994 21.4000 134.500 25 -1 21.5000 134.700 6 1004 0 0 0 21.5000 134.700 9 23 1004 16 30
1994348N04175 1994 116 WP MM BOBBIE 1994-12-26 09:00:00 ET 22.1629 135.270 main 1083 1055 PPP___________ WP391994 21.8750 134.637 25 -1 22.2349 135.428 6 1004 0 0 22.2349 135.428 9 23 1004 21 47
1994348N04175 1994 116 WP MM BOBBIE 1994-12-26 12:00:00 ET 22.9333 136.311 1004 tokyo main 1060 1042 OOO___________ jtwc_wp WP391994 22.4000 134.800 25 -1 23.0000 136.500 6 1004 0 0 0 23.0000 136.500 9 23 1004 28 53
1994348N04175 1994 116 WP MM BOBBIE 1994-12-26 15:00:00 ET 23.8660 137.734 main 1041 1016 _PP___________ WP391994 -1 23.8660 137.734 6 1004 0 0 23.8660 137.734 9 23 1004 30 54
1994348N04175 1994 116 WP MM BOBBIE 1994-12-26 18:00:00 ET 24.7000 139.000 1004 tokyo main 1019 983 _OO___________ -1 24.7000 139.000 6 1004 0 0 0 24.7000 139.000 9 23 1004 25 54
1994348N04175 1994 116 WP MM BOBBIE 1994-12-26 21:00:00 ET 25.3388 139.953 main 990 960 _PP___________ -1 25.3388 139.953 6 1004 0 0 25.3388 139.953 9 23 1004 22 54
1994348N04175 1994 116 WP MM BOBBIE 1994-12-27 00:00:00 ET 26.0000 141.000 1004 tokyo main 965 923 _OO___________ -1 26.0000 141.000 6 1004 0 0 0 26.0000 141.000 9 23 1004 28 56
1994348N04175 1994 116 WP MM BOBBIE 1994-12-27 03:00:00 ET 26.9094 142.537 main 926 886 _PP___________ -1 26.9094 142.537 6 1004 0 0 26.9094 142.537 9 23 1004 34 58
1994348N04175 1994 116 WP MM BOBBIE 1994-12-27 06:00:00 ET 27.8000 144.200 1004 tokyo main 890 884 _OO___________ -1 27.8000 144.200 6 1004 0 0 0 27.8000 144.200 9 23 1004 31 61
1994348N04175 1994 116 WP MM BOBBIE 1994-12-27 09:00:00 ET 28.4196 145.620 main 902 898 _PP___________ -1 28.4196 145.620 6 1005 0 0 28.4196 145.620 9 23 1005 27 64
1994348N04175 1994 116 WP MM BOBBIE 1994-12-27 12:00:00 ET 29.0000 147.000 1006 tokyo main 928 928 _OO___________ -1 29.0000 147.000 6 1006 0 0 0 29.0000 147.000 9 23 1006 28 63
1994348N04175 1994 116 WP MM BOBBIE 1994-12-27 15:00:00 ET 29.7207 148.478 main 974 973 _PP___________ -1 29.7264 148.486 6 1006 0 0 29.7094 148.463 9 23 1006 30 60
1994348N04175 1994 116 WP MM BOBBIE 1994-12-27 18:00:00 ET 30.5000 150.000 1006 tokyo main 1024 1024 _OO___________ -1 30.5000 150.000 6 1006 0 0 0 30.5000 150.000 9 23 1006 31 61
1994348N04175 1994 116 WP MM BOBBIE 1994-12-27 21:00:00 ET 31.2131 151.577 main 1109 1109 _P____________ -1 31.2131 151.577 6 1005 0 0 9 30 60
1994348N04175 1994 116 WP MM BOBBIE 1994-12-28 00:00:00 ET 32.0000 153.000 1004 tokyo main 1187 1187 _O____________ -1 32.0000 153.000 6 1004 0 0 0 26 48
1994348N04175 1994 116 WP MM BOBBIE 1994-12-28 03:00:00 ET 32.9126 153.829 main 1221 1221 _P____________ -1 32.9126 153.829 6 1001 0 0 26 40
1994348N04175 1994 116 WP MM BOBBIE 1994-12-28 06:00:00 ET 34.0000 155.000 998 tokyo main 1296 1296 _O____________ -1 34.0000 155.000 6 998 0 0 0 38 54
1994348N04175 1994 116 WP MM BOBBIE 1994-12-28 09:00:00 ET 35.1463 157.493 main 1339 1332 _P____________ -1 35.1463 157.493 6 996 0 0 51 61
1994348N04175 1994 116 WP MM BOBBIE 1994-12-28 12:00:00 ET 36.5000 160.500 994 tokyo main 1353 1350 _O____________ -1 36.5000 160.500 6 994 0 0 0 56 56
1994348N04175 1994 116 WP MM BOBBIE 1994-12-28 15:00:00 ET 38.2438 163.246 main 1367 1367 _P____________ -1 38.2438 163.246 6 991 0 0 56 51
1994348N04175 1994 116 WP MM BOBBIE 1994-12-28 18:00:00 ET 40.0000 166.000 988 tokyo main 1378 1373 _O____________ -1 40.0000 166.000 6 988 0 0 0 52 54
1994348N04175 1994 116 WP MM BOBBIE 1994-12-28 21:00:00 ET 41.3180 168.769 main 1400 1397 _P____________ -1 41.3180 168.769 6 984 0 0 48 59
1994348N04175 1994 116 WP MM BOBBIE 1994-12-29 00:00:00 ET 42.5000 171.500 980 tokyo main 1435 1435 _O____________ -1 42.5000 171.500 6 980 0 0 0 48 58
1994348N04175 1994 116 WP MM BOBBIE 1994-12-29 03:00:00 ET 43.8205 174.286 main 1462 1358 _P____________ -1 43.8205 174.286 6 976 0 0 47 58
1994348N04175 1994 116 WP MM BOBBIE 1994-12-29 06:00:00 ET 45.0000 177.000 972 tokyo main 1344 1151 _O____________ -1 45.0000 177.000 6 972 0 0 0 42 61
1994348N04175 1994 116 WP MM BOBBIE 1994-12-29 09:00:00 ET 45.8583 179.547 main 1138 967 _P____________ -1 45.8583 179.547 6 970 0 0 38 67
1994348N04175 1994 116 EP CP BOBBIE 1994-12-29 12:00:00 ET 46.5000 182.000 main 962 _O____________ -1 46.5000 182.000 6 968 0 0 0 36 69

Digital Typhoon Data and Search

About IBTrACS Database

This database is a web-friendly format of International Best Track Archive for Climate Stewardship (IBTrACS), a global best track data archive curated by NOAA dating back to 1842.

Updated: 2021-11-26